createdAt,value
2018-12-29T00:00:39.669Z,23.92
2018-12-29T00:01:39.698Z,23.94
2018-12-29T00:02:39.670Z,24.04
2018-12-29T00:03:39.693Z,24.00
2018-12-29T00:04:39.655Z,24.05
2018-12-29T00:05:39.661Z,23.90
2018-12-29T00:06:39.636Z,23.90
2018-12-29T00:07:39.666Z,23.97
2018-12-29T00:08:39.630Z,23.93
2018-12-29T00:09:39.615Z,24.02
2018-12-29T00:10:39.613Z,24.05
2018-12-29T00:11:39.604Z,23.87
2018-12-29T00:12:39.605Z,23.97
2018-12-29T00:13:39.610Z,23.92
2018-12-29T00:14:39.588Z,23.92
2018-12-29T00:15:39.604Z,23.93
2018-12-29T00:16:39.630Z,23.99
2018-12-29T00:17:39.577Z,24.00
2018-12-29T00:18:39.580Z,23.99
2018-12-29T00:19:39.585Z,23.86
2018-12-29T00:20:39.562Z,23.93
2018-12-29T00:21:39.576Z,23.89
2018-12-29T00:22:39.534Z,23.96
2018-12-29T00:23:39.586Z,23.93
2018-12-29T00:24:39.530Z,23.93
2018-12-29T00:25:39.514Z,23.92
2018-12-29T00:26:39.532Z,23.89
2018-12-29T00:27:39.539Z,23.89
2018-12-29T00:28:39.517Z,23.75
2018-12-29T00:29:39.560Z,23.78
2018-12-29T00:30:39.511Z,23.82
2018-12-29T00:31:39.545Z,23.75
2018-12-29T00:32:39.504Z,23.71
2018-12-29T00:33:39.467Z,23.78
2018-12-29T00:34:39.471Z,23.82
2018-12-29T00:35:39.472Z,23.86
2018-12-29T00:36:39.445Z,23.82
2018-12-29T00:37:39.455Z,23.84
2018-12-29T00:38:39.460Z,23.77
2018-12-29T00:39:39.442Z,23.75
2018-12-29T00:40:39.443Z,23.89
2018-12-29T00:41:39.419Z,23.75
2018-12-29T00:42:39.434Z,23.74
2018-12-29T00:43:39.459Z,23.87
2018-12-29T00:44:39.432Z,23.69
2018-12-29T00:45:39.404Z,23.79
2018-12-29T00:46:39.391Z,23.77
2018-12-29T00:47:39.397Z,23.75
2018-12-29T00:48:39.393Z,23.77
2018-12-29T00:49:39.371Z,23.71
2018-12-29T00:50:39.389Z,23.79
2018-12-29T00:51:39.434Z,23.69
2018-12-29T00:52:39.412Z,23.74
2018-12-29T00:53:39.369Z,23.79
2018-12-29T00:54:39.335Z,23.82
2018-12-29T00:55:39.354Z,23.78
2018-12-29T00:56:39.382Z,23.82
2018-12-29T00:57:39.332Z,23.79
2018-12-29T00:58:39.321Z,23.78
2018-12-29T00:59:39.323Z,23.68
2018-12-29T01:00:39.316Z,23.72
2018-12-29T01:01:39.286Z,23.72
2018-12-29T01:02:39.310Z,23.77
2018-12-29T01:03:39.277Z,23.67
2018-12-29T01:04:39.263Z,23.68
2018-12-29T01:05:39.295Z,23.74
2018-12-29T01:06:39.265Z,23.71
2018-12-29T01:07:39.284Z,23.72
2018-12-29T01:08:39.267Z,23.71
2018-12-29T01:09:39.265Z,23.74
2018-12-29T01:10:39.248Z,23.63
2018-12-29T01:11:39.232Z,23.63
2018-12-29T01:12:39.244Z,23.64
2018-12-29T01:13:39.232Z,23.64
2018-12-29T01:14:39.272Z,23.64
2018-12-29T01:15:39.222Z,23.72
2018-12-29T01:16:39.201Z,23.64
2018-12-29T01:17:39.220Z,23.57
2018-12-29T01:18:39.216Z,23.62
2018-12-29T01:19:39.210Z,23.50
2018-12-29T01:20:39.198Z,23.39
2018-12-29T01:21:39.175Z,23.41
2018-12-29T01:22:39.158Z,23.41
2018-12-29T01:23:39.191Z,23.38
2018-12-29T01:24:39.204Z,23.38
2018-12-29T01:25:39.149Z,23.37
2018-12-29T01:26:39.144Z,23.44
2018-12-29T01:27:39.146Z,23.41
2018-12-29T01:28:39.151Z,23.41
2018-12-29T01:29:39.118Z,23.34
2018-12-29T01:30:39.126Z,23.26
2018-12-29T01:31:39.094Z,23.22
2018-12-29T01:32:39.275Z,23.18
2018-12-29T01:33:39.095Z,23.23
2018-12-29T01:34:39.107Z,23.19
2018-12-29T01:35:39.102Z,23.16
2018-12-29T01:36:39.081Z,23.15
2018-12-29T01:37:39.098Z,23.23
2018-12-29T01:38:39.087Z,23.21
2018-12-29T01:39:39.059Z,23.16
2018-12-29T01:40:39.037Z,23.19
2018-12-29T01:41:39.064Z,23.15
2018-12-29T01:42:39.057Z,23.22
2018-12-29T01:43:39.050Z,23.16
2018-12-29T01:44:39.041Z,23.19
2018-12-29T01:45:39.012Z,23.32
2018-12-29T01:46:39.078Z,23.38
2018-12-29T01:47:39.023Z,23.38
2018-12-29T01:48:38.992Z,23.22
2018-12-29T01:49:38.994Z,23.42
2018-12-29T01:50:38.994Z,23.35
2018-12-29T01:51:38.988Z,23.26
2018-12-29T01:52:38.996Z,23.26
2018-12-29T01:53:38.971Z,23.29
2018-12-29T01:54:38.956Z,23.34
2018-12-29T01:55:38.967Z,23.25
2018-12-29T01:56:38.964Z,23.23
2018-12-29T01:57:38.947Z,23.37
2018-12-29T01:58:38.927Z,23.37
2018-12-29T01:59:38.941Z,23.39
2018-12-29T02:00:38.935Z,23.31
2018-12-29T02:01:38.939Z,23.41
2018-12-29T02:02:38.919Z,23.26
2018-12-29T02:03:38.902Z,23.29
2018-12-29T02:04:38.894Z,23.37
2018-12-29T02:05:38.907Z,23.31
2018-12-29T02:06:38.875Z,23.34
2018-12-29T02:07:38.885Z,23.29
2018-12-29T02:08:38.873Z,23.44
2018-12-29T02:09:38.881Z,23.39
2018-12-29T02:10:38.901Z,23.22
2018-12-29T02:11:38.867Z,23.35
2018-12-29T02:12:38.841Z,23.25
2018-12-29T02:13:38.840Z,23.25
2018-12-29T02:14:38.889Z,23.34
2018-12-29T02:15:38.833Z,23.31
2018-12-29T02:16:38.837Z,23.26
2018-12-29T02:17:38.817Z,23.26
2018-12-29T02:18:38.826Z,23.25
2018-12-29T02:19:38.794Z,23.38
2018-12-29T02:20:38.796Z,23.34
2018-12-29T02:21:38.799Z,23.34
2018-12-29T02:22:38.790Z,23.29
2018-12-29T02:23:38.762Z,23.23
2018-12-29T02:24:38.770Z,23.26
2018-12-29T02:25:38.759Z,23.22
2018-12-29T02:26:38.760Z,23.19
2018-12-29T02:27:38.758Z,23.22
2018-12-29T02:28:38.742Z,23.23
2018-12-29T02:29:38.739Z,23.23
2018-12-29T02:30:38.732Z,23.34
2018-12-29T02:31:38.761Z,23.31
2018-12-29T02:32:38.735Z,23.29
2018-12-29T02:33:38.721Z,23.35
2018-12-29T02:34:38.706Z,23.35
2018-12-29T02:35:38.692Z,23.37
2018-12-29T02:36:38.665Z,23.34
2018-12-29T02:37:38.697Z,23.23
2018-12-29T02:38:38.659Z,23.11
2018-12-29T02:39:38.665Z,23.11
2018-12-29T02:40:38.655Z,23.21
2018-12-29T02:41:38.635Z,23.23
2018-12-29T02:42:38.667Z,23.19
2018-12-29T02:43:38.639Z,23.25
2018-12-29T02:44:38.656Z,23.21
2018-12-29T02:45:38.628Z,23.14
2018-12-29T02:46:38.632Z,23.16
2018-12-29T02:47:38.625Z,23.14
2018-12-29T02:48:38.591Z,23.03
2018-12-29T02:49:38.614Z,23.06
2018-12-29T02:50:38.637Z,22.99
2018-12-29T02:51:38.593Z,23.00
2018-12-29T02:52:38.631Z,22.97
2018-12-29T02:53:38.572Z,23.12
2018-12-29T02:54:38.626Z,22.99
2018-12-29T02:55:38.614Z,23.07
2018-12-29T02:56:38.561Z,23.06
2018-12-29T02:57:38.555Z,23.00
2018-12-29T02:58:38.540Z,23.01
2018-12-29T02:59:38.518Z,22.96
2018-12-29T03:00:38.533Z,23.06
2018-12-29T03:01:38.537Z,23.03
2018-12-29T03:02:38.513Z,22.99
2018-12-29T03:03:38.513Z,22.96
2018-12-29T03:04:38.523Z,23.04
2018-12-29T03:05:38.515Z,23.06
2018-12-29T03:06:38.493Z,23.15
2018-12-29T03:07:38.460Z,23.04
2018-12-29T03:08:38.476Z,23.01
2018-12-29T03:09:38.455Z,22.94
2018-12-29T03:10:38.470Z,22.94
2018-12-29T03:11:38.472Z,22.91
2018-12-29T03:12:38.438Z,22.96
2018-12-29T03:13:38.433Z,23.06
2018-12-29T03:14:38.422Z,22.89
2018-12-29T03:15:41.502Z,23.04
2018-12-29T03:16:38.427Z,22.82
2018-12-29T03:17:38.420Z,22.89
2018-12-29T03:18:38.408Z,22.99
2018-12-29T03:19:38.423Z,22.94
2018-12-29T03:20:38.397Z,22.97
2018-12-29T03:21:38.401Z,22.88
2018-12-29T03:22:38.398Z,22.96
2018-12-29T03:23:38.385Z,23.00
2018-12-29T03:24:38.369Z,22.82
2018-12-29T03:25:38.354Z,22.96
2018-12-29T03:26:38.358Z,23.03
2018-12-29T03:27:38.362Z,22.89
2018-12-29T03:28:38.344Z,22.85
2018-12-29T03:29:38.332Z,22.93
2018-12-29T03:30:38.320Z,22.93
2018-12-29T03:31:38.321Z,22.79
2018-12-29T03:32:38.327Z,22.97
2018-12-29T03:33:38.293Z,22.91
2018-12-29T03:34:38.306Z,22.85
2018-12-29T03:35:38.291Z,22.79
2018-12-29T03:36:38.326Z,22.76
2018-12-29T03:37:38.275Z,22.69
2018-12-29T03:38:38.283Z,22.61
2018-12-29T03:39:38.274Z,22.59
2018-12-29T03:40:38.278Z,22.57
2018-12-29T03:41:38.256Z,22.66
2018-12-29T03:42:38.261Z,22.67
2018-12-29T03:43:38.253Z,22.61
2018-12-29T03:44:38.234Z,22.74
2018-12-29T03:45:38.240Z,22.67
2018-12-29T03:46:38.230Z,22.72
2018-12-29T03:47:38.223Z,22.60
2018-12-29T03:48:38.197Z,22.64
2018-12-29T03:49:38.209Z,22.59
2018-12-29T03:50:38.173Z,22.56
2018-12-29T03:51:38.189Z,22.56
2018-12-29T03:52:38.160Z,22.56
2018-12-29T03:53:38.154Z,22.52
2018-12-29T03:54:38.165Z,22.56
2018-12-29T03:55:38.176Z,22.61
2018-12-29T03:56:38.151Z,22.57
2018-12-29T03:57:38.130Z,22.52
2018-12-29T03:58:38.144Z,22.56
2018-12-29T03:59:38.131Z,22.49
2018-12-29T04:00:38.124Z,22.49
2018-12-29T04:01:38.118Z,22.49
2018-12-29T04:02:38.106Z,22.39
2018-12-29T04:03:38.114Z,22.33
2018-12-29T04:04:38.102Z,22.39
2018-12-29T04:05:38.082Z,22.36
2018-12-29T04:06:38.087Z,22.38
2018-12-29T04:07:38.071Z,22.46
2018-12-29T04:08:38.073Z,22.39
2018-12-29T04:09:38.052Z,22.39
2018-12-29T04:10:38.056Z,22.35
2018-12-29T04:11:38.052Z,22.35
2018-12-29T04:12:38.051Z,22.17
2018-12-29T04:13:38.025Z,22.20
2018-12-29T04:14:38.026Z,22.20
2018-12-29T04:15:38.022Z,22.14
2018-12-29T04:16:38.006Z,22.24
2018-12-29T04:17:38.001Z,22.30
2018-12-29T04:18:38.002Z,22.30
2018-12-29T04:19:37.995Z,22.41
2018-12-29T04:20:38.009Z,22.35
2018-12-29T04:21:37.959Z,22.26
2018-12-29T04:22:37.982Z,22.26
2018-12-29T04:23:37.970Z,22.27
2018-12-29T04:24:37.964Z,22.33
2018-12-29T04:25:37.930Z,22.35
2018-12-29T04:26:37.938Z,22.41
2018-12-29T04:27:37.932Z,22.42
2018-12-29T04:28:37.934Z,22.38
2018-12-29T04:29:37.915Z,22.42
2018-12-29T04:30:37.908Z,22.45
2018-12-29T04:31:37.908Z,22.36
2018-12-29T04:32:37.887Z,22.35
2018-12-29T04:33:37.917Z,22.27
2018-12-29T04:34:37.883Z,22.24
2018-12-29T04:35:37.859Z,22.19
2018-12-29T04:36:37.879Z,22.24
2018-12-29T04:37:37.857Z,22.35
2018-12-29T04:38:37.841Z,22.24
2018-12-29T04:39:37.856Z,22.39
2018-12-29T04:40:37.834Z,22.36
2018-12-29T04:41:37.837Z,22.38
2018-12-29T04:42:37.828Z,22.27
2018-12-29T04:43:37.889Z,22.11
2018-12-29T04:44:37.814Z,22.11
2018-12-29T04:45:37.789Z,22.14
2018-12-29T04:46:37.801Z,22.12
2018-12-29T04:47:37.777Z,22.15
2018-12-29T04:48:37.787Z,22.19
2018-12-29T04:49:37.764Z,22.29
2018-12-29T04:50:37.806Z,22.26
2018-12-29T04:51:37.746Z,22.29
2018-12-29T04:52:37.743Z,22.30
2018-12-29T04:53:37.760Z,22.23
2018-12-29T04:54:37.726Z,22.12
2018-12-29T04:55:37.737Z,22.14
2018-12-29T04:56:37.762Z,22.15
2018-12-29T04:57:37.711Z,22.02
2018-12-29T04:58:37.703Z,22.09
2018-12-29T04:59:37.705Z,21.98
2018-12-29T05:00:37.693Z,22.05
2018-12-29T05:01:37.688Z,22.09
2018-12-29T05:02:37.652Z,22.01
2018-12-29T05:03:37.678Z,22.05
2018-12-29T05:04:37.662Z,22.06
2018-12-29T05:05:37.668Z,22.01
2018-12-29T05:06:37.646Z,21.94
2018-12-29T05:07:37.619Z,21.81
2018-12-29T05:08:37.620Z,21.89
2018-12-29T05:09:37.642Z,21.91
2018-12-29T05:10:37.626Z,21.90
2018-12-29T05:11:37.604Z,21.98
2018-12-29T05:12:37.629Z,21.94
2018-12-29T05:13:37.593Z,22.05
2018-12-29T05:14:37.593Z,22.02
2018-12-29T05:15:37.599Z,22.02
2018-12-29T05:16:37.570Z,21.90
2018-12-29T05:17:37.566Z,21.90
2018-12-29T05:18:37.562Z,21.96
2018-12-29T05:19:37.527Z,21.91
2018-12-29T05:20:37.538Z,21.82
2018-12-29T05:21:37.540Z,21.77
2018-12-29T05:22:37.510Z,21.93
2018-12-29T05:23:37.521Z,21.93
2018-12-29T05:24:37.488Z,21.90
2018-12-29T05:25:37.550Z,21.91
2018-12-29T05:26:37.537Z,21.91
2018-12-29T05:27:37.506Z,21.83
2018-12-29T05:28:37.472Z,21.86
2018-12-29T05:29:37.514Z,21.68
2018-12-29T05:30:37.481Z,21.73
2018-12-29T05:31:37.520Z,21.67
2018-12-29T05:32:37.463Z,21.61
2018-12-29T05:33:37.456Z,21.66
2018-12-29T05:34:37.444Z,21.67
2018-12-29T05:35:37.437Z,21.66
2018-12-29T05:36:37.431Z,21.64
2018-12-29T05:37:37.409Z,21.61
2018-12-29T05:38:37.430Z,21.58
2018-12-29T05:39:37.399Z,21.46
2018-12-29T05:40:37.393Z,21.58
2018-12-29T05:41:37.389Z,21.55
2018-12-29T05:42:37.432Z,21.52
2018-12-29T05:43:37.360Z,21.56
2018-12-29T05:44:37.362Z,21.56
2018-12-29T05:45:37.343Z,21.66
2018-12-29T05:46:37.363Z,21.66
2018-12-29T05:47:37.334Z,21.61
2018-12-29T05:48:37.352Z,21.74
2018-12-29T05:49:37.323Z,21.63
2018-12-29T05:50:37.342Z,21.58
2018-12-29T05:51:37.330Z,21.63
2018-12-29T05:52:37.321Z,21.58
2018-12-29T05:53:37.283Z,21.56
2018-12-29T05:54:37.278Z,21.49
2018-12-29T05:55:37.293Z,21.51
2018-12-29T05:56:37.277Z,21.49
2018-12-29T05:57:37.253Z,21.46
2018-12-29T05:58:37.252Z,21.52
2018-12-29T05:59:37.256Z,21.52
2018-12-29T06:00:37.262Z,21.53
2018-12-29T06:01:37.231Z,21.58
2018-12-29T06:02:37.224Z,21.52
2018-12-29T06:03:37.222Z,21.53
2018-12-29T06:04:37.219Z,21.52
2018-12-29T06:05:37.202Z,21.46
2018-12-29T06:06:37.211Z,21.48
2018-12-29T06:07:37.175Z,21.53
2018-12-29T06:08:37.192Z,21.53
2018-12-29T06:09:37.184Z,21.58
2018-12-29T06:10:37.172Z,21.56
2018-12-29T06:11:37.161Z,21.61
2018-12-29T06:12:37.151Z,21.58
2018-12-29T06:13:37.143Z,21.56
2018-12-29T06:14:37.126Z,21.61
2018-12-29T06:15:37.134Z,21.67
2018-12-29T06:16:37.120Z,21.59
2018-12-29T06:17:37.118Z,21.61
2018-12-29T06:18:37.091Z,21.67
2018-12-29T06:19:37.137Z,21.66
2018-12-29T06:20:37.139Z,21.71
2018-12-29T06:21:37.089Z,21.75
2018-12-29T06:22:37.120Z,21.66
2018-12-29T06:23:37.051Z,21.70
2018-12-29T06:24:37.068Z,21.66
2018-12-29T06:25:37.045Z,21.67
2018-12-29T06:26:37.062Z,21.61
2018-12-29T06:27:37.018Z,21.53
2018-12-29T06:28:37.019Z,21.51
2018-12-29T06:29:37.033Z,21.55
2018-12-29T06:30:36.998Z,21.52
2018-12-29T06:31:37.006Z,21.59
2018-12-29T06:32:37.009Z,21.59
2018-12-29T06:33:36.979Z,21.56
2018-12-29T06:34:36.962Z,21.63
2018-12-29T06:35:37.008Z,21.59
2018-12-29T06:36:36.960Z,21.55
2018-12-29T06:37:36.943Z,21.63
2018-12-29T06:38:36.954Z,21.61
2018-12-29T06:39:36.954Z,21.63
2018-12-29T06:40:36.935Z,21.56
2018-12-29T06:41:36.939Z,21.51
2018-12-29T06:42:36.904Z,21.52
2018-12-29T06:43:36.924Z,21.46
2018-12-29T06:44:36.900Z,21.38
2018-12-29T06:45:36.949Z,21.33
2018-12-29T06:46:36.895Z,21.34
2018-12-29T06:47:36.934Z,21.33
2018-12-29T06:48:36.874Z,21.28
2018-12-29T06:49:36.895Z,21.33
2018-12-29T06:50:36.865Z,21.30
2018-12-29T06:51:36.893Z,21.19
2018-12-29T06:52:36.840Z,21.18
2018-12-29T06:53:36.834Z,21.31
2018-12-29T06:54:36.826Z,21.33
2018-12-29T06:55:36.903Z,21.33
2018-12-29T06:56:36.822Z,21.37
2018-12-29T06:57:36.791Z,21.36
2018-12-29T06:58:36.784Z,21.37
2018-12-29T06:59:36.762Z,21.38
2018-12-29T07:00:36.813Z,21.40
2018-12-29T07:01:36.765Z,21.38
2018-12-29T07:02:36.772Z,21.34
2018-12-29T07:03:36.747Z,21.37
2018-12-29T07:04:36.750Z,21.30
2018-12-29T07:05:36.747Z,21.28
2018-12-29T07:06:36.726Z,21.34
2018-12-29T07:07:36.724Z,21.27
2018-12-29T07:08:36.728Z,21.31
2018-12-29T07:09:36.718Z,21.21
2018-12-29T07:10:36.710Z,21.19
2018-12-29T07:11:36.693Z,21.08
2018-12-29T07:12:36.694Z,21.00
2018-12-29T07:13:36.670Z,21.21
2018-12-29T07:14:36.722Z,21.18
2018-12-29T07:15:36.668Z,21.18
2018-12-29T07:16:42.226Z,21.26
2018-12-29T07:17:36.634Z,21.19
2018-12-29T07:18:36.624Z,21.18
2018-12-29T07:19:36.640Z,21.18
2018-12-29T07:20:36.612Z,21.11
2018-12-29T07:21:36.595Z,21.18
2018-12-29T07:22:36.646Z,21.19
2018-12-29T07:23:36.603Z,21.18
2018-12-29T07:24:36.600Z,21.22
2018-12-29T07:25:36.602Z,21.26
2018-12-29T07:26:36.574Z,21.06
2018-12-29T07:27:36.585Z,21.09
2018-12-29T07:28:36.570Z,21.05
2018-12-29T07:29:38.374Z,21.05
2018-12-29T07:30:36.590Z,20.94
2018-12-29T07:31:36.769Z,20.93
2018-12-29T07:32:36.505Z,20.98
2018-12-29T07:33:36.536Z,21.01
2018-12-29T07:34:36.507Z,20.98
2018-12-29T07:35:36.501Z,20.90
2018-12-29T07:36:36.481Z,20.91
2018-12-29T07:37:36.489Z,20.87
2018-12-29T07:38:36.527Z,20.87
2018-12-29T07:39:36.531Z,20.90
2018-12-29T07:40:36.465Z,20.85
2018-12-29T07:41:36.460Z,20.88
2018-12-29T07:42:36.438Z,20.93
2018-12-29T07:43:36.419Z,20.88
2018-12-29T07:44:36.431Z,20.90
2018-12-29T07:45:36.418Z,20.88
2018-12-29T07:46:36.421Z,20.90
2018-12-29T07:47:36.451Z,20.81
2018-12-29T07:48:36.410Z,20.85
2018-12-29T07:49:36.396Z,20.83
2018-12-29T07:50:36.434Z,20.83
2018-12-29T07:51:36.388Z,20.83
2018-12-29T07:52:36.417Z,20.83
2018-12-29T07:53:36.410Z,20.88
2018-12-29T07:54:36.357Z,20.96
2018-12-29T07:55:36.393Z,20.97
2018-12-29T07:56:36.373Z,20.96
2018-12-29T07:57:36.321Z,21.00
2018-12-29T07:58:36.324Z,21.05
2018-12-29T07:59:36.346Z,21.03
2018-12-29T08:00:36.329Z,21.06
2018-12-29T08:01:36.306Z,21.06
2018-12-29T08:02:36.299Z,21.18
2018-12-29T08:03:36.278Z,21.06
2018-12-29T08:04:36.272Z,21.06
2018-12-29T08:05:36.252Z,21.21
2018-12-29T08:06:36.239Z,21.16
2018-12-29T08:07:36.244Z,21.22
2018-12-29T08:08:36.230Z,21.16
2018-12-29T08:09:36.221Z,21.19
2018-12-29T08:10:36.235Z,21.16
2018-12-29T08:11:36.212Z,21.18
2018-12-29T08:12:36.184Z,21.33
2018-12-29T08:13:36.541Z,21.26
2018-12-29T08:14:36.184Z,21.27
2018-12-29T08:15:36.186Z,21.34
2018-12-29T08:16:36.168Z,21.19
2018-12-29T08:17:36.169Z,21.18
2018-12-29T08:18:36.169Z,21.22
2018-12-29T08:19:36.174Z,21.18
2018-12-29T08:20:36.155Z,21.13
2018-12-29T08:21:36.132Z,21.09
2018-12-29T08:22:36.117Z,21.12
2018-12-29T08:23:36.124Z,21.08
2018-12-29T08:24:36.096Z,21.16
2018-12-29T08:25:36.100Z,21.19
2018-12-29T08:26:36.087Z,21.06
2018-12-29T08:27:36.074Z,21.06
2018-12-29T08:28:36.073Z,21.11
2018-12-29T08:29:36.053Z,21.05
2018-12-29T08:30:36.048Z,20.96
2018-12-29T08:31:36.054Z,21.00
2018-12-29T08:32:36.046Z,20.94
2018-12-29T08:33:36.043Z,21.01
2018-12-29T08:34:36.047Z,20.93
2018-12-29T08:35:35.995Z,20.94
2018-12-29T08:36:36.007Z,21.01
2018-12-29T08:37:36.015Z,21.01
2018-12-29T08:38:35.997Z,21.08
2018-12-29T08:39:35.986Z,21.16
2018-12-29T08:40:36.034Z,21.16
2018-12-29T08:41:35.971Z,21.27
2018-12-29T08:42:36.001Z,21.15
2018-12-29T08:43:35.949Z,21.28
2018-12-29T08:44:35.956Z,21.19
2018-12-29T08:45:35.953Z,21.21
2018-12-29T08:46:35.946Z,21.26
2018-12-29T08:47:35.933Z,21.21
2018-12-29T08:48:35.896Z,21.18
2018-12-29T08:49:35.909Z,21.19
2018-12-29T08:50:35.897Z,21.27
2018-12-29T08:51:35.913Z,21.19
2018-12-29T08:52:35.863Z,21.18
2018-12-29T08:53:35.880Z,21.19
2018-12-29T08:54:35.862Z,21.31
2018-12-29T08:55:35.869Z,21.21
2018-12-29T08:56:37.159Z,21.33
2018-12-29T08:57:35.887Z,21.26
2018-12-29T08:58:35.879Z,21.28
2018-12-29T08:59:35.866Z,21.33
2018-12-29T09:00:35.824Z,21.36
2018-12-29T09:01:35.803Z,21.33
2018-12-29T09:02:35.802Z,21.34
2018-12-29T09:03:35.792Z,21.37
2018-12-29T09:04:35.790Z,21.34
2018-12-29T09:05:35.773Z,21.36
2018-12-29T09:06:35.766Z,21.38
2018-12-29T09:07:35.779Z,21.42
2018-12-29T09:08:35.761Z,21.37
2018-12-29T09:09:35.764Z,21.45
2018-12-29T09:10:35.797Z,21.48
2018-12-29T09:11:35.717Z,21.48
2018-12-29T09:12:35.729Z,21.38
2018-12-29T09:13:35.712Z,21.48
2018-12-29T09:14:35.716Z,21.52
2018-12-29T09:15:35.700Z,21.51
2018-12-29T09:16:35.697Z,21.53
2018-12-29T09:17:35.713Z,21.37
2018-12-29T09:18:35.699Z,21.36
2018-12-29T09:19:35.661Z,21.51
2018-12-29T09:20:35.657Z,21.46
2018-12-29T09:21:35.656Z,21.45
2018-12-29T09:22:35.643Z,21.42
2018-12-29T09:23:35.690Z,21.42
2018-12-29T09:24:35.626Z,21.46
2018-12-29T09:25:35.598Z,21.48
2018-12-29T09:26:35.604Z,21.48
2018-12-29T09:27:35.599Z,21.43
2018-12-29T09:28:35.616Z,21.55
2018-12-29T09:29:35.581Z,21.48
2018-12-29T09:30:35.599Z,21.55
2018-12-29T09:31:35.583Z,21.56
2018-12-29T09:32:35.625Z,21.58
2018-12-29T09:33:35.569Z,21.56
2018-12-29T09:34:35.576Z,21.56
2018-12-29T09:35:35.556Z,21.61
2018-12-29T09:36:35.586Z,21.67
2018-12-29T09:37:35.544Z,21.64
2018-12-29T09:38:35.517Z,21.61
2018-12-29T09:39:35.514Z,21.77
2018-12-29T09:40:35.508Z,21.82
2018-12-29T09:41:35.504Z,21.81
2018-12-29T09:42:35.506Z,21.81
2018-12-29T09:43:35.489Z,21.75
2018-12-29T09:44:35.492Z,21.81
2018-12-29T09:45:35.491Z,21.79
2018-12-29T09:46:35.481Z,21.82
2018-12-29T09:47:35.453Z,21.82
2018-12-29T09:48:35.456Z,21.90
2018-12-29T09:49:35.444Z,21.91
2018-12-29T09:50:35.435Z,21.81
2018-12-29T09:51:35.438Z,21.83
2018-12-29T09:52:35.435Z,21.75
2018-12-29T09:53:35.415Z,21.83
2018-12-29T09:54:35.392Z,21.73
2018-12-29T09:55:35.396Z,21.81
2018-12-29T09:56:35.384Z,21.75
2018-12-29T09:57:35.425Z,21.79
2018-12-29T09:58:35.389Z,21.81
2018-12-29T09:59:35.383Z,21.81
2018-12-29T10:00:35.397Z,21.83
2018-12-29T10:01:35.328Z,21.79
2018-12-29T10:02:35.325Z,21.82
2018-12-29T10:03:35.326Z,21.93
2018-12-29T10:04:35.367Z,21.89
2018-12-29T10:05:35.324Z,21.89
2018-12-29T10:06:35.320Z,21.91
2018-12-29T10:07:35.373Z,21.90
2018-12-29T10:08:35.293Z,21.91
2018-12-29T10:09:35.293Z,21.99
2018-12-29T10:10:36.534Z,22.04
2018-12-29T10:11:35.281Z,22.02
2018-12-29T10:12:35.282Z,22.05
2018-12-29T10:13:35.260Z,22.05
2018-12-29T10:14:35.234Z,22.11
2018-12-29T10:15:35.254Z,22.06
2018-12-29T10:16:35.281Z,22.11
2018-12-29T10:17:35.232Z,22.14
2018-12-29T10:18:35.212Z,22.21
2018-12-29T10:19:35.219Z,22.17
2018-12-29T10:20:35.196Z,22.12
2018-12-29T10:21:35.177Z,22.33
2018-12-29T10:22:35.204Z,22.31
2018-12-29T10:23:35.198Z,22.26
2018-12-29T10:24:35.179Z,22.27
2018-12-29T10:25:35.182Z,22.36
2018-12-29T10:26:35.153Z,22.41
2018-12-29T10:27:35.148Z,22.51
2018-12-29T10:28:35.132Z,22.46
2018-12-29T10:29:35.136Z,22.54
2018-12-29T10:30:35.131Z,22.64
2018-12-29T10:31:35.180Z,22.57
2018-12-29T10:32:35.097Z,22.60
2018-12-29T10:33:35.107Z,22.57
2018-12-29T10:34:35.088Z,22.63
2018-12-29T10:35:35.136Z,22.63
2018-12-29T10:36:35.100Z,22.66
2018-12-29T10:37:35.067Z,22.85
2018-12-29T10:38:35.067Z,22.75
2018-12-29T10:39:35.053Z,22.79
2018-12-29T10:40:35.051Z,22.94
2018-12-29T10:41:35.053Z,22.97
2018-12-29T10:42:35.062Z,23.15
2018-12-29T10:43:35.045Z,23.09
2018-12-29T10:44:35.057Z,23.07
2018-12-29T10:45:35.018Z,23.15
2018-12-29T10:46:35.060Z,23.34
2018-12-29T10:47:35.048Z,23.23
2018-12-29T10:48:35.006Z,23.35
2018-12-29T10:49:34.999Z,23.29
2018-12-29T10:50:34.988Z,23.34
2018-12-29T10:51:34.971Z,23.35
2018-12-29T10:52:34.971Z,23.42
2018-12-29T10:53:34.962Z,23.41
2018-12-29T10:54:34.970Z,23.42
2018-12-29T10:55:35.014Z,23.39
2018-12-29T10:56:34.998Z,23.44
2018-12-29T10:57:34.958Z,23.39
2018-12-29T10:58:34.940Z,23.49
2018-12-29T10:59:34.940Z,23.49
2018-12-29T11:00:35.309Z,23.45
2018-12-29T11:01:34.929Z,23.44
2018-12-29T11:02:34.918Z,23.47
2018-12-29T11:03:34.925Z,23.56
2018-12-29T11:04:34.906Z,23.60
2018-12-29T11:05:34.882Z,23.60
2018-12-29T11:06:34.882Z,23.71
2018-12-29T11:07:34.869Z,23.71
2018-12-29T11:08:34.865Z,23.75
2018-12-29T11:09:34.872Z,23.63
2018-12-29T11:10:34.888Z,23.63
2018-12-29T11:11:34.836Z,23.74
2018-12-29T11:12:34.854Z,23.86
2018-12-29T11:13:34.840Z,23.84
2018-12-29T11:14:34.838Z,23.86
2018-12-29T11:15:34.805Z,23.92
2018-12-29T11:16:34.810Z,23.97
2018-12-29T11:17:41.989Z,24.06
2018-12-29T11:18:34.816Z,23.96
2018-12-29T11:19:34.824Z,24.08
2018-12-29T11:20:34.806Z,24.11
2018-12-29T11:21:34.804Z,24.09
2018-12-29T11:22:34.773Z,24.11
2018-12-29T11:23:34.785Z,24.21
2018-12-29T11:24:34.827Z,24.24
2018-12-29T11:25:34.752Z,24.31
2018-12-29T11:26:34.763Z,24.37
2018-12-29T11:27:34.774Z,24.56
2018-12-29T11:28:34.768Z,24.61
2018-12-29T11:29:34.741Z,24.75
2018-12-29T11:30:34.739Z,24.89
2018-12-29T11:31:34.728Z,25.05
2018-12-29T11:32:34.727Z,25.22
2018-12-29T11:33:34.730Z,25.36
2018-12-29T11:34:34.715Z,25.41
2018-12-29T11:35:34.709Z,25.44
2018-12-29T11:36:34.698Z,25.56
2018-12-29T11:37:34.707Z,25.67
2018-12-29T11:38:34.700Z,25.76
2018-12-29T11:39:34.692Z,25.83
2018-12-29T11:40:34.685Z,25.90
2018-12-29T11:41:34.696Z,26.12
2018-12-29T11:42:34.681Z,26.12
2018-12-29T11:43:34.659Z,26.23
2018-12-29T11:44:34.670Z,26.21
2018-12-29T11:45:34.663Z,26.28
2018-12-29T11:46:34.662Z,26.31
2018-12-29T11:47:34.647Z,26.34
2018-12-29T11:48:34.665Z,26.38
2018-12-29T11:49:34.630Z,26.50
2018-12-29T11:50:34.649Z,26.56
2018-12-29T11:51:34.638Z,26.73
2018-12-29T11:52:34.624Z,26.87
2018-12-29T11:53:34.630Z,26.83
2018-12-29T11:54:34.616Z,26.78
2018-12-29T11:55:34.655Z,26.81
2018-12-29T11:56:34.607Z,26.66
2018-12-29T11:57:34.626Z,26.65
2018-12-29T11:58:34.610Z,26.53
2018-12-29T11:59:34.579Z,26.53
2018-12-29T12:00:34.646Z,26.72
2018-12-29T12:01:34.582Z,26.94
2018-12-29T12:02:34.567Z,27.12
2018-12-29T12:03:34.619Z,27.33
2018-12-29T12:04:34.601Z,27.50
2018-12-29T12:05:34.575Z,27.35
2018-12-29T12:06:34.557Z,27.55
2018-12-29T12:07:34.559Z,27.65
2018-12-29T12:08:34.554Z,27.71
2018-12-29T12:09:34.585Z,27.88
2018-12-29T12:10:34.569Z,27.95
2018-12-29T12:11:34.556Z,28.05
2018-12-29T12:12:34.562Z,28.17
2018-12-29T12:13:34.531Z,28.20
2018-12-29T12:14:34.596Z,28.11
2018-12-29T12:15:34.599Z,28.08
2018-12-29T12:16:34.557Z,28.18
2018-12-29T12:17:34.538Z,28.32
2018-12-29T12:18:34.520Z,28.32
2018-12-29T12:19:34.577Z,28.46
2018-12-29T12:20:34.514Z,28.55
2018-12-29T12:21:34.581Z,28.70
2018-12-29T12:22:34.536Z,28.80
2018-12-29T12:23:34.529Z,28.95
2018-12-29T12:24:34.550Z,28.80
2018-12-29T12:25:34.519Z,28.92
2018-12-29T12:26:34.496Z,28.76
2018-12-29T12:27:34.523Z,28.46
2018-12-29T12:28:34.495Z,28.55
2018-12-29T12:29:34.516Z,28.54
2018-12-29T12:30:34.511Z,28.77
2018-12-29T12:31:34.486Z,28.77
2018-12-29T12:32:34.483Z,28.46
2018-12-29T12:33:34.530Z,28.24
2018-12-29T12:34:34.481Z,28.18
2018-12-29T12:35:34.497Z,28.23
2018-12-29T12:36:34.474Z,28.43
2018-12-29T12:37:34.484Z,28.55
2018-12-29T12:38:34.481Z,28.70
2018-12-29T12:39:34.450Z,28.62
2018-12-29T12:40:34.491Z,28.55
2018-12-29T12:41:34.479Z,28.20
2018-12-29T12:42:34.468Z,28.27
2018-12-29T12:43:34.457Z,27.95
2018-12-29T12:44:34.466Z,27.91
2018-12-29T12:45:34.451Z,27.86
2018-12-29T12:46:34.450Z,27.84
2018-12-29T12:47:34.452Z,28.08
2018-12-29T12:48:34.437Z,28.18
2018-12-29T12:49:34.427Z,28.42
2018-12-29T12:50:34.454Z,28.65
2018-12-29T12:51:34.430Z,28.82
2018-12-29T12:52:34.436Z,28.88